sensor_id;sensor_type;location;lat;lon;timestamp;P1;durP1;ratioP1;P2;durP2;ratioP2
7669;SDS011;3877;42.562;27.636;2023-05-20T00:00:00;9.60;;;6.20;;
7669;SDS011;3877;42.562;27.636;2023-05-20T00:02:28;9.00;;;6.93;;
7669;SDS011;3877;42.562;27.636;2023-05-20T00:04:54;10.50;;;6.70;;
7669;SDS011;3877;42.562;27.636;2023-05-20T00:07:23;12.43;;;6.60;;
7669;SDS011;3877;42.562;27.636;2023-05-20T00:09:50;11.43;;;6.95;;
7669;SDS011;3877;42.562;27.636;2023-05-20T00:12:17;9.27;;;6.73;;
7669;SDS011;3877;42.562;27.636;2023-05-20T00:14:43;10.87;;;6.67;;
7669;SDS011;3877;42.562;27.636;2023-05-20T00:17:10;8.57;;;6.50;;
7669;SDS011;3877;42.562;27.636;2023-05-20T00:19:37;10.50;;;6.77;;
7669;SDS011;3877;42.562;27.636;2023-05-20T00:22:04;10.67;;;6.33;;
7669;SDS011;3877;42.562;27.636;2023-05-20T00:24:32;10.97;;;6.90;;
7669;SDS011;3877;42.562;27.636;2023-05-20T00:26:59;12.93;;;6.17;;
7669;SDS011;3877;42.562;27.636;2023-05-20T00:29:26;9.37;;;6.47;;
7669;SDS011;3877;42.562;27.636;2023-05-20T00:31:53;12.17;;;6.27;;
7669;SDS011;3877;42.562;27.636;2023-05-20T00:34:20;14.43;;;6.33;;
7669;SDS011;3877;42.562;27.636;2023-05-20T00:36:47;11.30;;;7.07;;
7669;SDS011;3877;42.562;27.636;2023-05-20T00:39:14;8.98;;;6.38;;
7669;SDS011;3877;42.562;27.636;2023-05-20T00:41:42;11.90;;;6.30;;
7669;SDS011;3877;42.562;27.636;2023-05-20T00:44:09;10.07;;;6.43;;
7669;SDS011;3877;42.562;27.636;2023-05-20T00:46:35;7.87;;;6.33;;
7669;SDS011;3877;42.562;27.636;2023-05-20T00:49:02;9.53;;;6.73;;
7669;SDS011;3877;42.562;27.636;2023-05-20T00:51:29;9.47;;;6.23;;
7669;SDS011;3877;42.562;27.636;2023-05-20T00:53:56;9.77;;;5.60;;
7669;SDS011;3877;42.562;27.636;2023-05-20T00:56:24;9.37;;;6.33;;
7669;SDS011;3877;42.562;27.636;2023-05-20T00:58:52;11.63;;;6.67;;
7669;SDS011;3877;42.562;27.636;2023-05-20T01:01:19;10.48;;;6.50;;
7669;SDS011;3877;42.562;27.636;2023-05-20T01:03:46;11.67;;;6.33;;
7669;SDS011;3877;42.562;27.636;2023-05-20T01:06:13;12.52;;;6.65;;
7669;SDS011;3877;42.562;27.636;2023-05-20T01:08:40;9.32;;;6.53;;
7669;SDS011;3877;42.562;27.636;2023-05-20T01:11:08;12.13;;;6.30;;
7669;SDS011;3877;42.562;27.636;2023-05-20T01:13:38;12.33;;;6.60;;
7669;SDS011;3877;42.562;27.636;2023-05-20T01:16:09;13.97;;;6.80;;
7669;SDS011;3877;42.562;27.636;2023-05-20T01:18:36;13.43;;;6.87;;
7669;SDS011;3877;42.562;27.636;2023-05-20T01:21:05;9.43;;;6.50;;
7669;SDS011;3877;42.562;27.636;2023-05-20T01:23:36;10.03;;;7.13;;
7669;SDS011;3877;42.562;27.636;2023-05-20T01:26:03;8.10;;;5.87;;
7669;SDS011;3877;42.562;27.636;2023-05-20T01:28:30;9.33;;;6.37;;
7669;SDS011;3877;42.562;27.636;2023-05-20T01:30:58;12.90;;;6.60;;
7669;SDS011;3877;42.562;27.636;2023-05-20T01:33:26;11.07;;;6.70;;
7669;SDS011;3877;42.562;27.636;2023-05-20T01:35:54;11.00;;;7.27;;
7669;SDS011;3877;42.562;27.636;2023-05-20T01:38:22;16.13;;;7.00;;
7669;SDS011;3877;42.562;27.636;2023-05-20T01:40:51;14.37;;;7.80;;
7669;SDS011;3877;42.562;27.636;2023-05-20T01:43:19;14.60;;;6.70;;
7669;SDS011;3877;42.562;27.636;2023-05-20T01:45:46;8.87;;;6.47;;
7669;SDS011;3877;42.562;27.636;2023-05-20T01:48:13;12.73;;;7.20;;
7669;SDS011;3877;42.562;27.636;2023-05-20T01:50:41;11.23;;;6.57;;
7669;SDS011;3877;42.562;27.636;2023-05-20T01:53:07;15.10;;;7.30;;
7669;SDS011;3877;42.562;27.636;2023-05-20T01:55:34;9.80;;;6.90;;
7669;SDS011;3877;42.562;27.636;2023-05-20T01:58:03;11.87;;;6.70;;
7669;SDS011;3877;42.562;27.636;2023-05-20T02:00:30;14.80;;;7.53;;
7669;SDS011;3877;42.562;27.636;2023-05-20T02:02:57;14.67;;;7.20;;
7669;SDS011;3877;42.562;27.636;2023-05-20T02:05:24;15.90;;;7.53;;
7669;SDS011;3877;42.562;27.636;2023-05-20T02:07:52;13.95;;;7.00;;
7669;SDS011;3877;42.562;27.636;2023-05-20T02:10:18;9.50;;;6.53;;
7669;SDS011;3877;42.562;27.636;2023-05-20T02:12:45;9.40;;;6.83;;
7669;SDS011;3877;42.562;27.636;2023-05-20T02:15:15;7.83;;;6.37;;
7669;SDS011;3877;42.562;27.636;2023-05-20T02:17:41;9.88;;;7.18;;
7669;SDS011;3877;42.562;27.636;2023-05-20T02:20:09;9.23;;;7.10;;
7669;SDS011;3877;42.562;27.636;2023-05-20T02:22:36;13.47;;;6.73;;
7669;SDS011;3877;42.562;27.636;2023-05-20T02:25:03;13.47;;;6.40;;
7669;SDS011;3877;42.562;27.636;2023-05-20T02:27:29;9.53;;;6.70;;
7669;SDS011;3877;42.562;27.636;2023-05-20T02:29:57;16.73;;;7.03;;
7669;SDS011;3877;42.562;27.636;2023-05-20T02:32:26;10.10;;;6.87;;
7669;SDS011;3877;42.562;27.636;2023-05-20T02:34:53;9.70;;;7.00;;
7669;SDS011;3877;42.562;27.636;2023-05-20T02:37:20;10.30;;;6.85;;
7669;SDS011;3877;42.562;27.636;2023-05-20T02:39:46;11.60;;;7.40;;
7669;SDS011;3877;42.562;27.636;2023-05-20T02:42:13;12.35;;;7.10;;
7669;SDS011;3877;42.562;27.636;2023-05-20T02:44:40;9.87;;;6.63;;
7669;SDS011;3877;42.562;27.636;2023-05-20T02:47:07;10.73;;;6.93;;
7669;SDS011;3877;42.562;27.636;2023-05-20T02:49:36;11.33;;;7.23;;
7669;SDS011;3877;42.562;27.636;2023-05-20T02:52:04;10.10;;;6.73;;
7669;SDS011;3877;42.562;27.636;2023-05-20T02:54:31;7.40;;;6.13;;
7669;SDS011;3877;42.562;27.636;2023-05-20T02:56:58;13.30;;;6.90;;
7669;SDS011;3877;42.562;27.636;2023-05-20T02:59:25;11.13;;;6.73;;
7669;SDS011;3877;42.562;27.636;2023-05-20T03:01:51;10.60;;;7.20;;
7669;SDS011;3877;42.562;27.636;2023-05-20T03:04:18;10.17;;;7.17;;
7669;SDS011;3877;42.562;27.636;2023-05-20T03:06:47;10.82;;;6.78;;
7669;SDS011;3877;42.562;27.636;2023-05-20T03:09:16;9.73;;;6.73;;
7669;SDS011;3877;42.562;27.636;2023-05-20T03:11:43;8.80;;;6.70;;
7669;SDS011;3877;42.562;27.636;2023-05-20T03:14:10;9.87;;;7.57;;
7669;SDS011;3877;42.562;27.636;2023-05-20T03:16:37;14.03;;;7.30;;
7669;SDS011;3877;42.562;27.636;2023-05-20T03:19:04;10.40;;;7.20;;
7669;SDS011;3877;42.562;27.636;2023-05-20T03:21:31;10.53;;;7.53;;
7669;SDS011;3877;42.562;27.636;2023-05-20T03:23:59;8.67;;;7.00;;
7669;SDS011;3877;42.562;27.636;2023-05-20T03:26:26;9.20;;;7.77;;
7669;SDS011;3877;42.562;27.636;2023-05-20T03:28:53;10.30;;;7.03;;
7669;SDS011;3877;42.562;27.636;2023-05-20T03:31:20;10.20;;;6.70;;
7669;SDS011;3877;42.562;27.636;2023-05-20T03:33:47;12.50;;;7.50;;
7669;SDS011;3877;42.562;27.636;2023-05-20T03:36:13;9.53;;;7.23;;
7669;SDS011;3877;42.562;27.636;2023-05-20T03:38:40;9.50;;;6.73;;
7669;SDS011;3877;42.562;27.636;2023-05-20T03:41:08;10.53;;;7.30;;
7669;SDS011;3877;42.562;27.636;2023-05-20T03:43:35;8.40;;;7.20;;
7669;SDS011;3877;42.562;27.636;2023-05-20T03:46:03;9.87;;;7.03;;
7669;SDS011;3877;42.562;27.636;2023-05-20T03:48:31;12.03;;;8.20;;
7669;SDS011;3877;42.562;27.636;2023-05-20T03:51:00;12.20;;;7.33;;
7669;SDS011;3877;42.562;27.636;2023-05-20T03:53:27;9.97;;;7.03;;
7669;SDS011;3877;42.562;27.636;2023-05-20T03:55:54;10.43;;;7.17;;
7669;SDS011;3877;42.562;27.636;2023-05-20T03:58:22;9.33;;;6.97;;
7669;SDS011;3877;42.562;27.636;2023-05-20T04:00:49;10.80;;;7.20;;
7669;SDS011;3877;42.562;27.636;2023-05-20T04:03:16;11.17;;;7.20;;
7669;SDS011;3877;42.562;27.636;2023-05-20T04:05:43;13.20;;;7.40;;
7669;SDS011;3877;42.562;27.636;2023-05-20T04:08:10;10.37;;;7.00;;
7669;SDS011;3877;42.562;27.636;2023-05-20T04:10:39;8.57;;;7.57;;
7669;SDS011;3877;42.562;27.636;2023-05-20T04:13:06;9.40;;;6.83;;
7669;SDS011;3877;42.562;27.636;2023-05-20T04:15:35;9.17;;;6.73;;
7669;SDS011;3877;42.562;27.636;2023-05-20T04:18:02;9.47;;;7.13;;
7669;SDS011;3877;42.562;27.636;2023-05-20T04:20:30;12.23;;;7.57;;
7669;SDS011;3877;42.562;27.636;2023-05-20T04:22:57;11.90;;;7.40;;
7669;SDS011;3877;42.562;27.636;2023-05-20T04:25:24;10.00;;;7.27;;
7669;SDS011;3877;42.562;27.636;2023-05-20T04:27:51;7.77;;;6.00;;
7669;SDS011;3877;42.562;27.636;2023-05-20T04:30:18;10.60;;;7.80;;
7669;SDS011;3877;42.562;27.636;2023-05-20T04:32:47;10.50;;;6.90;;
7669;SDS011;3877;42.562;27.636;2023-05-20T04:35:14;8.40;;;6.70;;
7669;SDS011;3877;42.562;27.636;2023-05-20T04:37:41;8.93;;;7.63;;
7669;SDS011;3877;42.562;27.636;2023-05-20T04:40:12;10.53;;;7.00;;
7669;SDS011;3877;42.562;27.636;2023-05-20T04:42:39;10.27;;;7.25;;
7669;SDS011;3877;42.562;27.636;2023-05-20T04:45:07;12.98;;;7.03;;
7669;SDS011;3877;42.562;27.636;2023-05-20T04:47:34;9.23;;;7.37;;
7669;SDS011;3877;42.562;27.636;2023-05-20T04:50:04;9.88;;;7.47;;
7669;SDS011;3877;42.562;27.636;2023-05-20T04:52:33;12.02;;;7.18;;
7669;SDS011;3877;42.562;27.636;2023-05-20T04:55:00;14.45;;;7.28;;
7669;SDS011;3877;42.562;27.636;2023-05-20T04:57:27;10.27;;;7.38;;
7669;SDS011;3877;42.562;27.636;2023-05-20T04:59:54;9.75;;;7.30;;
7669;SDS011;3877;42.562;27.636;2023-05-20T05:02:23;11.07;;;7.38;;
7669;SDS011;3877;42.562;27.636;2023-05-20T05:04:50;13.87;;;7.17;;
7669;SDS011;3877;42.562;27.636;2023-05-20T05:07:18;8.88;;;6.70;;
7669;SDS011;3877;42.562;27.636;2023-05-20T05:09:45;10.15;;;6.70;;
7669;SDS011;3877;42.562;27.636;2023-05-20T05:12:12;11.68;;;6.60;;
7669;SDS011;3877;42.562;27.636;2023-05-20T05:14:38;9.87;;;5.97;;
7669;SDS011;3877;42.562;27.636;2023-05-20T05:17:05;9.10;;;6.53;;
7669;SDS011;3877;42.562;27.636;2023-05-20T05:19:33;8.70;;;6.87;;
7669;SDS011;3877;42.562;27.636;2023-05-20T05:22:00;9.73;;;6.22;;
7669;SDS011;3877;42.562;27.636;2023-05-20T05:24:28;13.70;;;7.00;;
7669;SDS011;3877;42.562;27.636;2023-05-20T05:26:55;10.43;;;7.30;;
7669;SDS011;3877;42.562;27.636;2023-05-20T05:29:22;9.83;;;7.20;;
7669;SDS011;3877;42.562;27.636;2023-05-20T05:31:49;9.00;;;7.10;;
7669;SDS011;3877;42.562;27.636;2023-05-20T05:34:15;14.52;;;8.07;;
7669;SDS011;3877;42.562;27.636;2023-05-20T05:36:42;14.15;;;7.30;;
7669;SDS011;3877;42.562;27.636;2023-05-20T05:39:09;13.60;;;7.60;;
7669;SDS011;3877;42.562;27.636;2023-05-20T05:41:37;11.60;;;7.63;;
7669;SDS011;3877;42.562;27.636;2023-05-20T05:44:04;10.67;;;7.67;;
7669;SDS011;3877;42.562;27.636;2023-05-20T05:46:32;10.40;;;7.73;;
7669;SDS011;3877;42.562;27.636;2023-05-20T05:48:58;9.40;;;7.67;;
7669;SDS011;3877;42.562;27.636;2023-05-20T05:51:26;10.80;;;7.80;;
7669;SDS011;3877;42.562;27.636;2023-05-20T05:53:53;10.13;;;7.13;;
7669;SDS011;3877;42.562;27.636;2023-05-20T05:56:20;10.37;;;7.40;;
7669;SDS011;3877;42.562;27.636;2023-05-20T05:58:48;8.95;;;7.75;;
7669;SDS011;3877;42.562;27.636;2023-05-20T06:01:15;12.65;;;8.32;;
7669;SDS011;3877;42.562;27.636;2023-05-20T06:03:42;10.47;;;8.23;;
7669;SDS011;3877;42.562;27.636;2023-05-20T06:06:09;10.63;;;8.03;;
7669;SDS011;3877;42.562;27.636;2023-05-20T06:08:36;20.27;;;13.40;;
7669;SDS011;3877;42.562;27.636;2023-05-20T06:11:02;19.23;;;12.90;;
7669;SDS011;3877;42.562;27.636;2023-05-20T06:13:29;19.00;;;10.87;;
7669;SDS011;3877;42.562;27.636;2023-05-20T06:15:58;12.37;;;9.37;;
7669;SDS011;3877;42.562;27.636;2023-05-20T06:18:24;12.50;;;9.00;;
7669;SDS011;3877;42.562;27.636;2023-05-20T06:20:53;12.47;;;8.40;;
7669;SDS011;3877;42.562;27.636;2023-05-20T06:23:20;11.60;;;8.33;;
7669;SDS011;3877;42.562;27.636;2023-05-20T06:25:47;10.13;;;7.87;;
7669;SDS011;3877;42.562;27.636;2023-05-20T06:28:14;12.57;;;8.07;;
7669;SDS011;3877;42.562;27.636;2023-05-20T06:30:41;11.00;;;7.97;;
7669;SDS011;3877;42.562;27.636;2023-05-20T06:33:09;11.47;;;8.13;;
7669;SDS011;3877;42.562;27.636;2023-05-20T06:35:36;13.82;;;8.32;;
7669;SDS011;3877;42.562;27.636;2023-05-20T06:38:04;10.93;;;8.50;;
7669;SDS011;3877;42.562;27.636;2023-05-20T06:40:31;10.83;;;8.03;;
7669;SDS011;3877;42.562;27.636;2023-05-20T06:42:58;10.00;;;6.93;;
7669;SDS011;3877;42.562;27.636;2023-05-20T06:45:25;10.07;;;7.83;;
7669;SDS011;3877;42.562;27.636;2023-05-20T06:47:52;8.43;;;6.97;;
7669;SDS011;3877;42.562;27.636;2023-05-20T06:50:20;9.83;;;7.97;;
7669;SDS011;3877;42.562;27.636;2023-05-20T06:52:47;8.90;;;7.73;;
7669;SDS011;3877;42.562;27.636;2023-05-20T06:55:15;11.20;;;7.50;;
7669;SDS011;3877;42.562;27.636;2023-05-20T06:57:42;14.50;;;7.37;;
7669;SDS011;3877;42.562;27.636;2023-05-20T07:00:09;10.27;;;7.43;;
7669;SDS011;3877;42.562;27.636;2023-05-20T07:02:37;9.37;;;7.33;;
7669;SDS011;3877;42.562;27.636;2023-05-20T07:05:04;11.48;;;7.80;;
7669;SDS011;3877;42.562;27.636;2023-05-20T07:07:33;9.90;;;7.00;;
7669;SDS011;3877;42.562;27.636;2023-05-20T07:09:59;10.60;;;7.82;;
7669;SDS011;3877;42.562;27.636;2023-05-20T07:12:26;11.27;;;6.75;;
7669;SDS011;3877;42.562;27.636;2023-05-20T07:14:53;9.52;;;7.20;;
7669;SDS011;3877;42.562;27.636;2023-05-20T07:17:20;8.23;;;6.70;;
7669;SDS011;3877;42.562;27.636;2023-05-20T07:19:46;11.63;;;6.68;;
7669;SDS011;3877;42.562;27.636;2023-05-20T07:22:13;9.27;;;7.10;;
7669;SDS011;3877;42.562;27.636;2023-05-20T07:24:42;9.82;;;6.78;;
7669;SDS011;3877;42.562;27.636;2023-05-20T07:27:08;8.15;;;6.55;;
7669;SDS011;3877;42.562;27.636;2023-05-20T07:29:35;10.27;;;6.47;;
7669;SDS011;3877;42.562;27.636;2023-05-20T07:32:03;13.90;;;6.78;;
7669;SDS011;3877;42.562;27.636;2023-05-20T07:34:30;10.23;;;6.75;;
7669;SDS011;3877;42.562;27.636;2023-05-20T07:36:57;7.05;;;5.50;;
7669;SDS011;3877;42.562;27.636;2023-05-20T07:39:25;10.20;;;5.78;;
7669;SDS011;3877;42.562;27.636;2023-05-20T07:41:53;9.05;;;6.10;;
7669;SDS011;3877;42.562;27.636;2023-05-20T07:44:20;10.15;;;6.35;;
7669;SDS011;3877;42.562;27.636;2023-05-20T07:46:47;8.55;;;5.75;;
7669;SDS011;3877;42.562;27.636;2023-05-20T07:49:14;8.70;;;5.82;;
7669;SDS011;3877;42.562;27.636;2023-05-20T07:51:40;11.73;;;6.50;;
7669;SDS011;3877;42.562;27.636;2023-05-20T07:54:07;10.82;;;5.97;;
7669;SDS011;3877;42.562;27.636;2023-05-20T07:56:34;11.18;;;6.25;;
7669;SDS011;3877;42.562;27.636;2023-05-20T07:59:02;11.75;;;5.82;;
7669;SDS011;3877;42.562;27.636;2023-05-20T08:01:29;9.90;;;6.10;;
7669;SDS011;3877;42.562;27.636;2023-05-20T08:03:56;10.43;;;6.10;;
7669;SDS011;3877;42.562;27.636;2023-05-20T08:06:23;10.23;;;5.93;;
7669;SDS011;3877;42.562;27.636;2023-05-20T08:08:50;11.95;;;5.75;;
7669;SDS011;3877;42.562;27.636;2023-05-20T08:11:18;6.78;;;5.57;;
7669;SDS011;3877;42.562;27.636;2023-05-20T08:13:45;7.10;;;5.60;;
7669;SDS011;3877;42.562;27.636;2023-05-20T08:16:13;7.25;;;5.60;;
7669;SDS011;3877;42.562;27.636;2023-05-20T08:18:40;13.82;;;5.95;;
7669;SDS011;3877;42.562;27.636;2023-05-20T08:21:07;9.93;;;5.43;;
7669;SDS011;3877;42.562;27.636;2023-05-20T08:23:34;8.57;;;5.55;;
7669;SDS011;3877;42.562;27.636;2023-05-20T08:26:01;6.80;;;4.97;;
7669;SDS011;3877;42.562;27.636;2023-05-20T08:28:28;7.25;;;5.20;;
7669;SDS011;3877;42.562;27.636;2023-05-20T08:30:55;8.40;;;4.93;;
7669;SDS011;3877;42.562;27.636;2023-05-20T08:33:24;20.30;;;5.45;;
7669;SDS011;3877;42.562;27.636;2023-05-20T08:35:51;14.88;;;6.07;;
7669;SDS011;3877;42.562;27.636;2023-05-20T08:38:18;8.38;;;5.57;;
7669;SDS011;3877;42.562;27.636;2023-05-20T08:40:45;8.15;;;5.28;;
7669;SDS011;3877;42.562;27.636;2023-05-20T08:43:11;16.95;;;5.50;;
7669;SDS011;3877;42.562;27.636;2023-05-20T08:45:38;11.90;;;5.57;;
7669;SDS011;3877;42.562;27.636;2023-05-20T08:48:05;10.40;;;6.10;;
7669;SDS011;3877;42.562;27.636;2023-05-20T08:50:33;7.95;;;5.57;;
7669;SDS011;3877;42.562;27.636;2023-05-20T08:53:01;12.75;;;6.35;;
7669;SDS011;3877;42.562;27.636;2023-05-20T08:55:29;12.43;;;5.85;;
7669;SDS011;3877;42.562;27.636;2023-05-20T08:57:58;9.15;;;5.80;;
7669;SDS011;3877;42.562;27.636;2023-05-20T09:00:25;7.15;;;5.60;;
7669;SDS011;3877;42.562;27.636;2023-05-20T09:02:53;8.85;;;5.82;;
7669;SDS011;3877;42.562;27.636;2023-05-20T09:05:20;11.75;;;6.38;;
7669;SDS011;3877;42.562;27.636;2023-05-20T09:07:49;12.80;;;5.80;;
7669;SDS011;3877;42.562;27.636;2023-05-20T09:10:15;12.48;;;6.50;;
7669;SDS011;3877;42.562;27.636;2023-05-20T09:12:42;14.05;;;7.30;;
7669;SDS011;3877;42.562;27.636;2023-05-20T09:15:10;12.57;;;6.78;;
7669;SDS011;3877;42.562;27.636;2023-05-20T09:17:37;8.15;;;6.10;;
7669;SDS011;3877;42.562;27.636;2023-05-20T09:20:06;9.27;;;6.65;;
7669;SDS011;3877;42.562;27.636;2023-05-20T09:22:34;8.88;;;6.32;;
7669;SDS011;3877;42.562;27.636;2023-05-20T09:25:03;11.80;;;6.23;;
7669;SDS011;3877;42.562;27.636;2023-05-20T09:27:30;8.65;;;6.30;;
7669;SDS011;3877;42.562;27.636;2023-05-20T09:29:58;8.68;;;6.18;;
7669;SDS011;3877;42.562;27.636;2023-05-20T09:32:24;8.90;;;6.00;;
7669;SDS011;3877;42.562;27.636;2023-05-20T09:34:53;9.38;;;6.55;;
7669;SDS011;3877;42.562;27.636;2023-05-20T09:37:20;6.93;;;5.72;;
7669;SDS011;3877;42.562;27.636;2023-05-20T09:39:49;7.70;;;5.38;;
7669;SDS011;3877;42.562;27.636;2023-05-20T09:42:20;9.20;;;6.07;;
7669;SDS011;3877;42.562;27.636;2023-05-20T09:44:47;11.38;;;6.07;;
7669;SDS011;3877;42.562;27.636;2023-05-20T09:47:15;9.18;;;5.63;;
7669;SDS011;3877;42.562;27.636;2023-05-20T09:49:58;13.23;;;6.57;;
7669;SDS011;3877;42.562;27.636;2023-05-20T09:52:26;12.55;;;6.43;;
7669;SDS011;3877;42.562;27.636;2023-05-20T09:54:53;11.03;;;6.07;;
7669;SDS011;3877;42.562;27.636;2023-05-20T09:57:22;11.13;;;6.30;;
7669;SDS011;3877;42.562;27.636;2023-05-20T09:59:49;10.57;;;6.03;;
7669;SDS011;3877;42.562;27.636;2023-05-20T10:02:16;10.87;;;6.30;;
7669;SDS011;3877;42.562;27.636;2023-05-20T10:04:44;14.03;;;6.60;;
7669;SDS011;3877;42.562;27.636;2023-05-20T10:10:06;12.93;;;7.23;;
7669;SDS011;3877;42.562;27.636;2023-05-20T10:12:40;13.97;;;6.93;;
7669;SDS011;3877;42.562;27.636;2023-05-20T10:15:11;16.93;;;8.03;;
7669;SDS011;3877;42.562;27.636;2023-05-20T10:17:42;12.20;;;7.07;;
7669;SDS011;3877;42.562;27.636;2023-05-20T10:20:10;19.10;;;7.53;;
7669;SDS011;3877;42.562;27.636;2023-05-20T10:22:37;19.47;;;6.83;;
7669;SDS011;3877;42.562;27.636;2023-05-20T10:25:05;19.53;;;7.50;;
7669;SDS011;3877;42.562;27.636;2023-05-20T10:27:42;14.80;;;7.50;;
7669;SDS011;3877;42.562;27.636;2023-05-20T10:30:16;16.30;;;6.90;;
7669;SDS011;3877;42.562;27.636;2023-05-20T10:32:47;15.13;;;7.53;;
7669;SDS011;3877;42.562;27.636;2023-05-20T10:35:19;14.63;;;7.40;;
7669;SDS011;3877;42.562;27.636;2023-05-20T10:37:46;14.90;;;7.77;;
7669;SDS011;3877;42.562;27.636;2023-05-20T10:40:14;11.10;;;7.40;;
7669;SDS011;3877;42.562;27.636;2023-05-20T10:42:42;13.80;;;8.00;;
7669;SDS011;3877;42.562;27.636;2023-05-20T10:45:09;16.37;;;8.53;;
7669;SDS011;3877;42.562;27.636;2023-05-20T10:47:36;11.03;;;7.23;;
7669;SDS011;3877;42.562;27.636;2023-05-20T10:50:07;14.10;;;8.13;;
7669;SDS011;3877;42.562;27.636;2023-05-20T10:52:40;10.57;;;7.38;;
7669;SDS011;3877;42.562;27.636;2023-05-20T10:55:07;10.97;;;7.70;;
7669;SDS011;3877;42.562;27.636;2023-05-20T10:57:45;11.60;;;7.53;;
7669;SDS011;3877;42.562;27.636;2023-05-20T11:00:12;11.30;;;7.30;;
7669;SDS011;3877;42.562;27.636;2023-05-20T11:02:40;10.43;;;7.33;;
7669;SDS011;3877;42.562;27.636;2023-05-20T11:05:09;8.00;;;6.80;;
7669;SDS011;3877;42.562;27.636;2023-05-20T11:07:36;10.60;;;7.53;;
7669;SDS011;3877;42.562;27.636;2023-05-20T11:10:06;11.40;;;7.32;;
7669;SDS011;3877;42.562;27.636;2023-05-20T11:12:33;10.45;;;7.57;;
7669;SDS011;3877;42.562;27.636;2023-05-20T11:15:01;12.32;;;8.05;;
7669;SDS011;3877;42.562;27.636;2023-05-20T11:17:28;12.50;;;8.40;;
7669;SDS011;3877;42.562;27.636;2023-05-20T11:19:55;11.88;;;8.38;;
7669;SDS011;3877;42.562;27.636;2023-05-20T11:22:25;13.27;;;8.20;;
7669;SDS011;3877;42.562;27.636;2023-05-20T11:24:52;11.07;;;8.75;;
7669;SDS011;3877;42.562;27.636;2023-05-20T11:27:19;14.45;;;8.10;;
7669;SDS011;3877;42.562;27.636;2023-05-20T11:29:47;11.57;;;8.43;;
7669;SDS011;3877;42.562;27.636;2023-05-20T11:32:16;12.48;;;8.55;;
7669;SDS011;3877;42.562;27.636;2023-05-20T11:34:44;11.25;;;9.07;;
7669;SDS011;3877;42.562;27.636;2023-05-20T11:37:11;12.07;;;8.48;;
7669;SDS011;3877;42.562;27.636;2023-05-20T11:39:39;13.45;;;8.88;;
7669;SDS011;3877;42.562;27.636;2023-05-20T11:42:06;11.20;;;8.38;;
7669;SDS011;3877;42.562;27.636;2023-05-20T11:44:33;11.82;;;8.50;;
7669;SDS011;3877;42.562;27.636;2023-05-20T11:47:00;10.50;;;8.10;;
7669;SDS011;3877;42.562;27.636;2023-05-20T11:49:29;11.75;;;8.10;;
7669;SDS011;3877;42.562;27.636;2023-05-20T11:51:56;11.80;;;8.20;;
7669;SDS011;3877;42.562;27.636;2023-05-20T11:54:23;11.43;;;8.52;;
7669;SDS011;3877;42.562;27.636;2023-05-20T11:56:50;14.70;;;8.55;;
7669;SDS011;3877;42.562;27.636;2023-05-20T11:59:19;10.48;;;8.57;;
7669;SDS011;3877;42.562;27.636;2023-05-20T12:01:49;9.88;;;8.35;;
7669;SDS011;3877;42.562;27.636;2023-05-20T12:04:16;10.02;;;8.05;;
7669;SDS011;3877;42.562;27.636;2023-05-20T12:06:44;10.77;;;8.52;;
7669;SDS011;3877;42.562;27.636;2023-05-20T12:09:12;9.50;;;8.02;;
7669;SDS011;3877;42.562;27.636;2023-05-20T12:11:39;12.88;;;8.13;;
7669;SDS011;3877;42.562;27.636;2023-05-20T12:14:06;10.77;;;8.02;;
7669;SDS011;3877;42.562;27.636;2023-05-20T12:16:33;11.82;;;8.25;;
7669;SDS011;3877;42.562;27.636;2023-05-20T12:19:01;13.40;;;8.48;;
7669;SDS011;3877;42.562;27.636;2023-05-20T12:21:27;28.42;;;8.35;;
7669;SDS011;3877;42.562;27.636;2023-05-20T12:23:57;10.30;;;8.10;;
7669;SDS011;3877;42.562;27.636;2023-05-20T12:26:24;11.90;;;8.30;;
7669;SDS011;3877;42.562;27.636;2023-05-20T12:28:51;12.38;;;8.63;;
7669;SDS011;3877;42.562;27.636;2023-05-20T12:31:18;11.68;;;8.88;;
7669;SDS011;3877;42.562;27.636;2023-05-20T12:33:45;14.85;;;8.63;;
7669;SDS011;3877;42.562;27.636;2023-05-20T12:36:12;11.48;;;9.35;;
7669;SDS011;3877;42.562;27.636;2023-05-20T12:38:39;14.50;;;9.15;;
7669;SDS011;3877;42.562;27.636;2023-05-20T12:41:07;10.20;;;9.07;;
7669;SDS011;3877;42.562;27.636;2023-05-20T12:43:34;12.50;;;9.65;;
7669;SDS011;3877;42.562;27.636;2023-05-20T12:46:01;14.27;;;9.45;;
7669;SDS011;3877;42.562;27.636;2023-05-20T12:48:29;13.30;;;9.98;;
7669;SDS011;3877;42.562;27.636;2023-05-20T12:50:55;11.95;;;9.48;;
7669;SDS011;3877;42.562;27.636;2023-05-20T12:53:22;13.82;;;9.85;;
7669;SDS011;3877;42.562;27.636;2023-05-20T12:55:49;9.50;;;8.32;;
7669;SDS011;3877;42.562;27.636;2023-05-20T12:58:17;15.32;;;9.10;;
7669;SDS011;3877;42.562;27.636;2023-05-20T13:00:44;15.40;;;8.77;;
7669;SDS011;3877;42.562;27.636;2023-05-20T13:03:11;12.43;;;8.32;;
7669;SDS011;3877;42.562;27.636;2023-05-20T13:05:38;13.57;;;8.35;;
7669;SDS011;3877;42.562;27.636;2023-05-20T13:08:05;13.52;;;8.38;;
7669;SDS011;3877;42.562;27.636;2023-05-20T13:10:33;14.15;;;8.30;;
7669;SDS011;3877;42.562;27.636;2023-05-20T13:13:00;13.23;;;6.88;;
7669;SDS011;3877;42.562;27.636;2023-05-20T13:15:28;11.90;;;6.97;;
7669;SDS011;3877;42.562;27.636;2023-05-20T13:17:57;10.55;;;6.95;;
7669;SDS011;3877;42.562;27.636;2023-05-20T13:20:25;12.63;;;6.65;;
7669;SDS011;3877;42.562;27.636;2023-05-20T13:22:52;10.73;;;6.70;;
7669;SDS011;3877;42.562;27.636;2023-05-20T13:25:19;11.57;;;7.25;;
7669;SDS011;3877;42.562;27.636;2023-05-20T13:27:45;13.60;;;7.72;;
7669;SDS011;3877;42.562;27.636;2023-05-20T13:30:12;12.00;;;7.60;;
7669;SDS011;3877;42.562;27.636;2023-05-20T13:32:41;10.88;;;7.40;;
7669;SDS011;3877;42.562;27.636;2023-05-20T13:35:07;12.02;;;7.60;;
7669;SDS011;3877;42.562;27.636;2023-05-20T13:37:34;10.93;;;7.38;;
7669;SDS011;3877;42.562;27.636;2023-05-20T13:40:01;14.18;;;7.35;;
7669;SDS011;3877;42.562;27.636;2023-05-20T13:42:28;11.18;;;7.28;;
7669;SDS011;3877;42.562;27.636;2023-05-20T13:44:55;16.38;;;7.80;;
7669;SDS011;3877;42.562;27.636;2023-05-20T13:47:22;18.30;;;6.68;;
7669;SDS011;3877;42.562;27.636;2023-05-20T13:49:50;15.60;;;7.10;;
7669;SDS011;3877;42.562;27.636;2023-05-20T13:52:17;14.93;;;7.55;;
7669;SDS011;3877;42.562;27.636;2023-05-20T13:54:44;17.25;;;8.27;;
7669;SDS011;3877;42.562;27.636;2023-05-20T13:57:12;13.55;;;7.53;;
7669;SDS011;3877;42.562;27.636;2023-05-20T13:59:39;16.92;;;7.82;;
7669;SDS011;3877;42.562;27.636;2023-05-20T14:02:06;15.13;;;8.75;;
7669;SDS011;3877;42.562;27.636;2023-05-20T14:04:33;15.50;;;8.07;;
7669;SDS011;3877;42.562;27.636;2023-05-20T14:07:05;20.60;;;8.02;;
7669;SDS011;3877;42.562;27.636;2023-05-20T14:09:32;25.08;;;9.13;;
7669;SDS011;3877;42.562;27.636;2023-05-20T14:11:59;19.65;;;9.20;;
7669;SDS011;3877;42.562;27.636;2023-05-20T14:14:25;19.92;;;9.23;;
7669;SDS011;3877;42.562;27.636;2023-05-20T14:16:52;21.30;;;9.05;;
7669;SDS011;3877;42.562;27.636;2023-05-20T14:19:19;22.88;;;8.05;;
7669;SDS011;3877;42.562;27.636;2023-05-20T14:21:46;17.58;;;7.75;;
7669;SDS011;3877;42.562;27.636;2023-05-20T14:24:14;16.83;;;8.43;;
7669;SDS011;3877;42.562;27.636;2023-05-20T14:26:41;22.48;;;9.20;;
7669;SDS011;3877;42.562;27.636;2023-05-20T14:29:08;20.38;;;8.70;;
7669;SDS011;3877;42.562;27.636;2023-05-20T14:31:35;16.42;;;8.82;;
7669;SDS011;3877;42.562;27.636;2023-05-20T14:34:02;18.33;;;8.80;;
7669;SDS011;3877;42.562;27.636;2023-05-20T14:36:29;16.30;;;8.07;;
7669;SDS011;3877;42.562;27.636;2023-05-20T14:38:56;19.42;;;8.73;;
7669;SDS011;3877;42.562;27.636;2023-05-20T14:41:24;17.98;;;8.35;;
7669;SDS011;3877;42.562;27.636;2023-05-20T14:43:51;16.35;;;7.85;;
7669;SDS011;3877;42.562;27.636;2023-05-20T14:46:18;18.80;;;8.82;;
7669;SDS011;3877;42.562;27.636;2023-05-20T14:48:44;15.55;;;8.10;;
7669;SDS011;3877;42.562;27.636;2023-05-20T14:51:11;18.67;;;8.32;;
7669;SDS011;3877;42.562;27.636;2023-05-20T14:53:38;21.42;;;8.15;;